sensor_id;sensor_type;location;lat;lon;timestamp;P1;durP1;ratioP1;P2;durP2;ratioP2
70667;SDS011;58242;51.250;-1.118;2023-03-07T00:01:00;3.90;;;3.70;;
70667;SDS011;58242;51.250;-1.118;2023-03-07T00:03:26;4.40;;;4.10;;
70667;SDS011;58242;51.250;-1.118;2023-03-07T00:06:01;4.45;;;4.13;;
70667;SDS011;58242;51.250;-1.118;2023-03-07T00:08:28;4.70;;;4.40;;
70667;SDS011;58242;51.250;-1.118;2023-03-07T00:10:53;4.63;;;4.30;;
70667;SDS011;58242;51.250;-1.118;2023-03-07T00:13:18;4.47;;;4.13;;
70667;SDS011;58242;51.250;-1.118;2023-03-07T00:15:44;4.63;;;4.32;;
70667;SDS011;58242;51.250;-1.118;2023-03-07T00:18:09;4.45;;;4.13;;
70667;SDS011;58242;51.250;-1.118;2023-03-07T00:20:34;4.57;;;4.22;;
70667;SDS011;58242;51.250;-1.118;2023-03-07T00:23:00;4.20;;;3.80;;
70667;SDS011;58242;51.250;-1.118;2023-03-07T00:25:25;4.30;;;3.95;;
70667;SDS011;58242;51.250;-1.118;2023-03-07T00:27:50;4.00;;;3.80;;
70667;SDS011;58242;51.250;-1.118;2023-03-07T00:30:16;4.18;;;3.88;;
70667;SDS011;58242;51.250;-1.118;2023-03-07T00:32:41;4.38;;;4.07;;
70667;SDS011;58242;51.250;-1.118;2023-03-07T00:35:06;7.90;;;4.63;;
70667;SDS011;58242;51.250;-1.118;2023-03-07T00:37:32;4.68;;;4.10;;
70667;SDS011;58242;51.250;-1.118;2023-03-07T00:39:57;4.15;;;3.85;;
70667;SDS011;58242;51.250;-1.118;2023-03-07T00:42:23;4.05;;;3.75;;
70667;SDS011;58242;51.250;-1.118;2023-03-07T00:44:48;4.57;;;3.95;;
70667;SDS011;58242;51.250;-1.118;2023-03-07T00:47:13;4.07;;;3.80;;
70667;SDS011;58242;51.250;-1.118;2023-03-07T00:49:39;4.18;;;3.85;;
70667;SDS011;58242;51.250;-1.118;2023-03-07T00:52:04;3.83;;;3.70;;
70667;SDS011;58242;51.250;-1.118;2023-03-07T00:54:30;4.38;;;4.05;;
70667;SDS011;58242;51.250;-1.118;2023-03-07T00:56:55;4.40;;;4.00;;
70667;SDS011;58242;51.250;-1.118;2023-03-07T00:59:20;3.72;;;3.53;;
70667;SDS011;58242;51.250;-1.118;2023-03-07T01:01:45;3.80;;;3.60;;
70667;SDS011;58242;51.250;-1.118;2023-03-07T01:04:11;4.35;;;3.95;;
70667;SDS011;58242;51.250;-1.118;2023-03-07T01:06:36;4.15;;;3.95;;
70667;SDS011;58242;51.250;-1.118;2023-03-07T01:09:05;4.60;;;4.20;;
70667;SDS011;58242;51.250;-1.118;2023-03-07T01:11:31;4.30;;;3.90;;
70667;SDS011;58242;51.250;-1.118;2023-03-07T01:13:58;4.80;;;3.78;;
70667;SDS011;58242;51.250;-1.118;2023-03-07T01:16:26;5.70;;;4.05;;
70667;SDS011;58242;51.250;-1.118;2023-03-07T01:18:57;4.40;;;4.00;;
70667;SDS011;58242;51.250;-1.118;2023-03-07T01:21:25;4.30;;;4.00;;
70667;SDS011;58242;51.250;-1.118;2023-03-07T01:23:53;4.05;;;3.85;;
70667;SDS011;58242;51.250;-1.118;2023-03-07T01:26:20;4.50;;;4.05;;
70667;SDS011;58242;51.250;-1.118;2023-03-07T01:28:50;4.55;;;4.13;;
70667;SDS011;58242;51.250;-1.118;2023-03-07T01:31:17;3.97;;;3.67;;
70667;SDS011;58242;51.250;-1.118;2023-03-07T01:33:43;4.57;;;4.18;;
70667;SDS011;58242;51.250;-1.118;2023-03-07T01:36:27;5.03;;;4.50;;
70667;SDS011;58242;51.250;-1.118;2023-03-07T01:38:55;4.70;;;4.35;;
70667;SDS011;58242;51.250;-1.118;2023-03-07T01:41:23;4.40;;;4.20;;
70667;SDS011;58242;51.250;-1.118;2023-03-07T01:43:49;4.30;;;4.00;;
70667;SDS011;58242;51.250;-1.118;2023-03-07T01:49:18;4.32;;;4.03;;
70667;SDS011;58242;51.250;-1.118;2023-03-07T01:51:38;4.20;;;3.95;;
70667;SDS011;58242;51.250;-1.118;2023-03-07T01:54:05;4.20;;;3.90;;
70667;SDS011;58242;51.250;-1.118;2023-03-07T01:56:33;4.38;;;4.07;;
70667;SDS011;58242;51.250;-1.118;2023-03-07T01:59:00;4.90;;;4.50;;
70667;SDS011;58242;51.250;-1.118;2023-03-07T02:01:25;4.40;;;4.10;;
70667;SDS011;58242;51.250;-1.118;2023-03-07T02:04:02;5.97;;;3.90;;
70667;SDS011;58242;51.250;-1.118;2023-03-07T02:06:34;4.38;;;4.07;;
70667;SDS011;58242;51.250;-1.118;2023-03-07T02:09:02;3.80;;;3.60;;
70667;SDS011;58242;51.250;-1.118;2023-03-07T02:11:30;4.25;;;4.00;;
70667;SDS011;58242;51.250;-1.118;2023-03-07T02:13:56;3.80;;;3.60;;
70667;SDS011;58242;51.250;-1.118;2023-03-07T02:16:21;4.47;;;4.07;;
70667;SDS011;58242;51.250;-1.118;2023-03-07T02:18:47;4.10;;;3.90;;
70667;SDS011;58242;51.250;-1.118;2023-03-07T02:23:50;3.90;;;3.70;;
70667;SDS011;58242;51.250;-1.118;2023-03-07T02:28:52;3.70;;;3.50;;
70667;SDS011;58242;51.250;-1.118;2023-03-07T02:31:19;3.90;;;3.70;;
70667;SDS011;58242;51.250;-1.118;2023-03-07T02:33:44;4.35;;;3.88;;
70667;SDS011;58242;51.250;-1.118;2023-03-07T02:36:31;3.40;;;3.20;;
70667;SDS011;58242;51.250;-1.118;2023-03-07T02:38:57;3.10;;;2.90;;
70667;SDS011;58242;51.250;-1.118;2023-03-07T02:41:27;2.95;;;2.75;;
70667;SDS011;58242;51.250;-1.118;2023-03-07T02:43:54;3.33;;;2.70;;
70667;SDS011;58242;51.250;-1.118;2023-03-07T02:46:19;2.88;;;2.67;;
70667;SDS011;58242;51.250;-1.118;2023-03-07T02:48:45;2.85;;;2.53;;
70667;SDS011;58242;51.250;-1.118;2023-03-07T02:51:11;3.05;;;2.67;;
70667;SDS011;58242;51.250;-1.118;2023-03-07T02:53:36;3.03;;;2.70;;
70667;SDS011;58242;51.250;-1.118;2023-03-07T02:56:02;2.65;;;2.55;;
70667;SDS011;58242;51.250;-1.118;2023-03-07T02:58:28;3.03;;;2.83;;
70667;SDS011;58242;51.250;-1.118;2023-03-07T03:00:53;2.83;;;2.63;;
70667;SDS011;58242;51.250;-1.118;2023-03-07T03:03:18;3.30;;;3.00;;
70667;SDS011;58242;51.250;-1.118;2023-03-07T03:05:44;3.42;;;2.60;;
70667;SDS011;58242;51.250;-1.118;2023-03-07T03:08:09;4.93;;;2.80;;
70667;SDS011;58242;51.250;-1.118;2023-03-07T03:10:36;2.67;;;2.58;;
70667;SDS011;58242;51.250;-1.118;2023-03-07T03:13:02;2.70;;;2.50;;
70667;SDS011;58242;51.250;-1.118;2023-03-07T03:15:27;2.58;;;2.40;;
70667;SDS011;58242;51.250;-1.118;2023-03-07T03:17:53;2.60;;;2.40;;
70667;SDS011;58242;51.250;-1.118;2023-03-07T03:20:18;2.40;;;2.30;;
70667;SDS011;58242;51.250;-1.118;2023-03-07T03:22:43;2.50;;;2.40;;
70667;SDS011;58242;51.250;-1.118;2023-03-07T03:25:10;2.53;;;2.35;;
70667;SDS011;58242;51.250;-1.118;2023-03-07T03:27:37;2.20;;;2.10;;
70667;SDS011;58242;51.250;-1.118;2023-03-07T03:30:04;2.20;;;2.10;;
70667;SDS011;58242;51.250;-1.118;2023-03-07T03:32:31;1.90;;;1.90;;
70667;SDS011;58242;51.250;-1.118;2023-03-07T03:34:57;1.88;;;1.88;;
70667;SDS011;58242;51.250;-1.118;2023-03-07T03:37:23;1.75;;;1.70;;
70667;SDS011;58242;51.250;-1.118;2023-03-07T03:39:48;1.90;;;1.80;;
70667;SDS011;58242;51.250;-1.118;2023-03-07T03:42:13;2.38;;;2.28;;
70667;SDS011;58242;51.250;-1.118;2023-03-07T03:44:38;2.38;;;2.28;;
70667;SDS011;58242;51.250;-1.118;2023-03-07T03:47:04;2.08;;;1.98;;
70667;SDS011;58242;51.250;-1.118;2023-03-07T03:49:29;2.25;;;2.15;;
70667;SDS011;58242;51.250;-1.118;2023-03-07T03:51:55;2.15;;;2.05;;
70667;SDS011;58242;51.250;-1.118;2023-03-07T03:54:20;2.10;;;2.00;;
70667;SDS011;58242;51.250;-1.118;2023-03-07T03:56:46;1.80;;;1.80;;
70667;SDS011;58242;51.250;-1.118;2023-03-07T03:59:11;2.35;;;1.95;;
70667;SDS011;58242;51.250;-1.118;2023-03-07T04:01:36;1.90;;;1.90;;
70667;SDS011;58242;51.250;-1.118;2023-03-07T04:04:02;1.70;;;1.70;;
70667;SDS011;58242;51.250;-1.118;2023-03-07T04:06:30;1.50;;;1.50;;
70667;SDS011;58242;51.250;-1.118;2023-03-07T04:08:57;1.83;;;1.83;;
70667;SDS011;58242;51.250;-1.118;2023-03-07T04:11:22;1.50;;;1.50;;
70667;SDS011;58242;51.250;-1.118;2023-03-07T04:13:48;1.67;;;1.67;;
70667;SDS011;58242;51.250;-1.118;2023-03-07T04:16:14;1.80;;;1.80;;
70667;SDS011;58242;51.250;-1.118;2023-03-07T04:18:41;1.70;;;1.70;;
70667;SDS011;58242;51.250;-1.118;2023-03-07T04:21:07;2.03;;;1.92;;
70667;SDS011;58242;51.250;-1.118;2023-03-07T04:23:33;1.90;;;1.90;;
70667;SDS011;58242;51.250;-1.118;2023-03-07T04:25:59;1.67;;;1.67;;
70667;SDS011;58242;51.250;-1.118;2023-03-07T04:28:27;1.60;;;1.60;;
70667;SDS011;58242;51.250;-1.118;2023-03-07T04:31:16;1.70;;;1.70;;
70667;SDS011;58242;51.250;-1.118;2023-03-07T04:33:46;1.88;;;1.85;;
70667;SDS011;58242;51.250;-1.118;2023-03-07T04:36:13;1.75;;;1.75;;
70667;SDS011;58242;51.250;-1.118;2023-03-07T04:38:40;2.00;;;1.90;;
70667;SDS011;58242;51.250;-1.118;2023-03-07T04:41:06;1.95;;;1.92;;
70667;SDS011;58242;51.250;-1.118;2023-03-07T04:43:32;1.90;;;1.80;;
70667;SDS011;58242;51.250;-1.118;2023-03-07T04:45:58;1.88;;;1.77;;
70667;SDS011;58242;51.250;-1.118;2023-03-07T04:48:24;1.77;;;1.77;;
70667;SDS011;58242;51.250;-1.118;2023-03-07T04:50:49;1.98;;;1.98;;
70667;SDS011;58242;51.250;-1.118;2023-03-07T04:53:16;2.10;;;2.00;;
70667;SDS011;58242;51.250;-1.118;2023-03-07T04:55:42;2.05;;;1.95;;
70667;SDS011;58242;51.250;-1.118;2023-03-07T04:58:08;2.13;;;2.03;;
70667;SDS011;58242;51.250;-1.118;2023-03-07T05:00:37;1.88;;;1.80;;
70667;SDS011;58242;51.250;-1.118;2023-03-07T05:03:03;1.80;;;1.75;;
70667;SDS011;58242;51.250;-1.118;2023-03-07T05:05:29;1.92;;;1.92;;
70667;SDS011;58242;51.250;-1.118;2023-03-07T05:07:54;1.88;;;1.88;;
70667;SDS011;58242;51.250;-1.118;2023-03-07T05:10:19;2.05;;;1.95;;
70667;SDS011;58242;51.250;-1.118;2023-03-07T05:12:45;2.10;;;2.00;;
70667;SDS011;58242;51.250;-1.118;2023-03-07T05:15:10;2.10;;;2.00;;
70667;SDS011;58242;51.250;-1.118;2023-03-07T05:17:35;2.13;;;2.03;;
70667;SDS011;58242;51.250;-1.118;2023-03-07T05:20:01;2.13;;;2.03;;
70667;SDS011;58242;51.250;-1.118;2023-03-07T05:22:27;2.22;;;2.13;;
70667;SDS011;58242;51.250;-1.118;2023-03-07T05:24:53;1.95;;;1.90;;
70667;SDS011;58242;51.250;-1.118;2023-03-07T05:27:18;2.28;;;2.17;;
70667;SDS011;58242;51.250;-1.118;2023-03-07T05:29:44;2.17;;;2.08;;
70667;SDS011;58242;51.250;-1.118;2023-03-07T05:32:09;2.20;;;2.10;;
70667;SDS011;58242;51.250;-1.118;2023-03-07T05:34:35;1.90;;;1.90;;
70667;SDS011;58242;51.250;-1.118;2023-03-07T05:37:02;1.92;;;1.92;;
70667;SDS011;58242;51.250;-1.118;2023-03-07T05:39:27;2.15;;;2.10;;
70667;SDS011;58242;51.250;-1.118;2023-03-07T05:41:53;2.08;;;1.98;;
70667;SDS011;58242;51.250;-1.118;2023-03-07T05:44:19;2.80;;;2.65;;
70667;SDS011;58242;51.250;-1.118;2023-03-07T05:46:44;2.60;;;2.50;;
70667;SDS011;58242;51.250;-1.118;2023-03-07T05:49:09;2.35;;;2.25;;
70667;SDS011;58242;51.250;-1.118;2023-03-07T05:51:35;2.50;;;2.40;;
70667;SDS011;58242;51.250;-1.118;2023-03-07T05:54:00;2.47;;;2.38;;
70667;SDS011;58242;51.250;-1.118;2023-03-07T05:56:25;2.45;;;2.35;;
70667;SDS011;58242;51.250;-1.118;2023-03-07T05:58:51;2.63;;;2.53;;
70667;SDS011;58242;51.250;-1.118;2023-03-07T06:01:16;3.38;;;2.70;;
70667;SDS011;58242;51.250;-1.118;2023-03-07T06:03:41;2.63;;;2.53;;
70667;SDS011;58242;51.250;-1.118;2023-03-07T06:06:08;2.30;;;2.20;;
70667;SDS011;58242;51.250;-1.118;2023-03-07T06:08:34;2.85;;;2.60;;
70667;SDS011;58242;51.250;-1.118;2023-03-07T06:10:59;2.25;;;2.15;;
70667;SDS011;58242;51.250;-1.118;2023-03-07T06:13:25;2.28;;;2.17;;
70667;SDS011;58242;51.250;-1.118;2023-03-07T06:15:51;2.50;;;2.40;;
70667;SDS011;58242;51.250;-1.118;2023-03-07T06:18:17;2.33;;;2.22;;
70667;SDS011;58242;51.250;-1.118;2023-03-07T06:20:43;2.33;;;2.22;;
70667;SDS011;58242;51.250;-1.118;2023-03-07T06:23:09;2.33;;;2.22;;
70667;SDS011;58242;51.250;-1.118;2023-03-07T06:25:34;2.30;;;2.20;;
70667;SDS011;58242;51.250;-1.118;2023-03-07T06:28:00;2.40;;;2.30;;
70667;SDS011;58242;51.250;-1.118;2023-03-07T06:30:26;2.40;;;2.30;;
70667;SDS011;58242;51.250;-1.118;2023-03-07T06:32:52;2.55;;;2.35;;
70667;SDS011;58242;51.250;-1.118;2023-03-07T06:35:18;2.70;;;2.60;;
70667;SDS011;58242;51.250;-1.118;2023-03-07T06:37:43;2.55;;;2.45;;
70667;SDS011;58242;51.250;-1.118;2023-03-07T06:40:08;2.42;;;2.33;;
70667;SDS011;58242;51.250;-1.118;2023-03-07T06:42:34;2.40;;;2.30;;
70667;SDS011;58242;51.250;-1.118;2023-03-07T06:45:00;2.80;;;2.60;;
70667;SDS011;58242;51.250;-1.118;2023-03-07T06:47:26;2.63;;;2.53;;
70667;SDS011;58242;51.250;-1.118;2023-03-07T06:49:51;2.30;;;2.20;;
70667;SDS011;58242;51.250;-1.118;2023-03-07T06:52:17;3.03;;;2.83;;
70667;SDS011;58242;51.250;-1.118;2023-03-07T06:54:42;2.50;;;2.40;;
70667;SDS011;58242;51.250;-1.118;2023-03-07T06:57:08;2.38;;;2.28;;
70667;SDS011;58242;51.250;-1.118;2023-03-07T06:59:33;2.67;;;2.47;;
70667;SDS011;58242;51.250;-1.118;2023-03-07T07:02:00;2.97;;;2.88;;
70667;SDS011;58242;51.250;-1.118;2023-03-07T07:04:27;3.00;;;2.90;;
70667;SDS011;58242;51.250;-1.118;2023-03-07T07:06:52;2.60;;;2.50;;
70667;SDS011;58242;51.250;-1.118;2023-03-07T07:09:17;2.60;;;2.50;;
70667;SDS011;58242;51.250;-1.118;2023-03-07T07:11:43;2.50;;;2.40;;
70667;SDS011;58242;51.250;-1.118;2023-03-07T07:14:08;2.40;;;2.30;;
70667;SDS011;58242;51.250;-1.118;2023-03-07T07:16:33;2.42;;;2.33;;
70667;SDS011;58242;51.250;-1.118;2023-03-07T07:19:00;2.30;;;2.20;;
70667;SDS011;58242;51.250;-1.118;2023-03-07T07:21:25;2.30;;;2.20;;
70667;SDS011;58242;51.250;-1.118;2023-03-07T07:23:51;2.28;;;2.17;;
70667;SDS011;58242;51.250;-1.118;2023-03-07T07:26:16;2.30;;;2.20;;
70667;SDS011;58242;51.250;-1.118;2023-03-07T07:28:41;2.58;;;2.47;;
70667;SDS011;58242;51.250;-1.118;2023-03-07T07:31:06;2.55;;;2.40;;
70667;SDS011;58242;51.250;-1.118;2023-03-07T07:33:32;2.35;;;2.22;;
70667;SDS011;58242;51.250;-1.118;2023-03-07T07:35:57;2.50;;;2.40;;
70667;SDS011;58242;51.250;-1.118;2023-03-07T07:38:22;2.13;;;2.03;;
70667;SDS011;58242;51.250;-1.118;2023-03-07T07:40:48;2.50;;;2.40;;
70667;SDS011;58242;51.250;-1.118;2023-03-07T07:43:14;2.60;;;2.50;;
70667;SDS011;58242;51.250;-1.118;2023-03-07T07:45:40;2.70;;;2.60;;
70667;SDS011;58242;51.250;-1.118;2023-03-07T07:48:06;2.47;;;2.38;;
70667;SDS011;58242;51.250;-1.118;2023-03-07T07:50:31;2.75;;;2.65;;
70667;SDS011;58242;51.250;-1.118;2023-03-07T07:52:56;2.13;;;2.03;;
70667;SDS011;58242;51.250;-1.118;2023-03-07T07:55:22;2.45;;;2.35;;
70667;SDS011;58242;51.250;-1.118;2023-03-07T07:57:49;2.33;;;2.20;;
70667;SDS011;58242;51.250;-1.118;2023-03-07T08:00:15;2.88;;;2.67;;
70667;SDS011;58242;51.250;-1.118;2023-03-07T08:02:45;2.72;;;2.53;;
70667;SDS011;58242;51.250;-1.118;2023-03-07T08:05:14;2.80;;;2.60;;
70667;SDS011;58242;51.250;-1.118;2023-03-07T08:07:41;3.20;;;3.00;;
70667;SDS011;58242;51.250;-1.118;2023-03-07T08:10:07;3.05;;;2.85;;
70667;SDS011;58242;51.250;-1.118;2023-03-07T08:12:33;3.33;;;3.15;;
70667;SDS011;58242;51.250;-1.118;2023-03-07T08:14:59;2.70;;;2.60;;
70667;SDS011;58242;51.250;-1.118;2023-03-07T08:17:24;3.13;;;2.92;;
70667;SDS011;58242;51.250;-1.118;2023-03-07T08:19:49;3.00;;;2.80;;
70667;SDS011;58242;51.250;-1.118;2023-03-07T08:22:14;3.10;;;2.80;;
70667;SDS011;58242;51.250;-1.118;2023-03-07T08:24:40;2.80;;;2.60;;
70667;SDS011;58242;51.250;-1.118;2023-03-07T08:27:06;3.08;;;2.88;;
70667;SDS011;58242;51.250;-1.118;2023-03-07T08:29:32;2.38;;;2.28;;
70667;SDS011;58242;51.250;-1.118;2023-03-07T08:31:57;2.60;;;2.40;;
70667;SDS011;58242;51.250;-1.118;2023-03-07T08:34:22;2.28;;;2.17;;
70667;SDS011;58242;51.250;-1.118;2023-03-07T08:36:48;2.40;;;2.30;;
70667;SDS011;58242;51.250;-1.118;2023-03-07T08:39:13;2.03;;;1.92;;
70667;SDS011;58242;51.250;-1.118;2023-03-07T08:41:38;2.30;;;1.90;;
70667;SDS011;58242;51.250;-1.118;2023-03-07T08:44:04;2.20;;;1.90;;
70667;SDS011;58242;51.250;-1.118;2023-03-07T08:46:29;1.85;;;1.75;;
70667;SDS011;58242;51.250;-1.118;2023-03-07T08:48:54;1.85;;;1.75;;
70667;SDS011;58242;51.250;-1.118;2023-03-07T08:51:20;1.63;;;1.52;;
70667;SDS011;58242;51.250;-1.118;2023-03-07T08:53:45;1.95;;;1.70;;
70667;SDS011;58242;51.250;-1.118;2023-03-07T08:56:12;1.63;;;1.52;;
70667;SDS011;58242;51.250;-1.118;2023-03-07T08:58:39;2.00;;;1.90;;
70667;SDS011;58242;51.250;-1.118;2023-03-07T09:01:07;1.70;;;1.60;;
70667;SDS011;58242;51.250;-1.118;2023-03-07T09:03:33;1.60;;;1.52;;
70667;SDS011;58242;51.250;-1.118;2023-03-07T09:05:59;2.00;;;1.90;;
70667;SDS011;58242;51.250;-1.118;2023-03-07T09:08:25;2.30;;;2.20;;
70667;SDS011;58242;51.250;-1.118;2023-03-07T09:10:51;1.73;;;1.70;;
70667;SDS011;58242;51.250;-1.118;2023-03-07T09:13:16;1.90;;;1.60;;
70667;SDS011;58242;51.250;-1.118;2023-03-07T09:15:42;2.20;;;2.10;;
70667;SDS011;58242;51.250;-1.118;2023-03-07T09:18:08;1.95;;;1.85;;
70667;SDS011;58242;51.250;-1.118;2023-03-07T09:20:34;1.73;;;1.63;;
70667;SDS011;58242;51.250;-1.118;2023-03-07T09:23:02;1.90;;;1.80;;
70667;SDS011;58242;51.250;-1.118;2023-03-07T09:25:27;2.10;;;2.08;;
70667;SDS011;58242;51.250;-1.118;2023-03-07T09:27:52;2.00;;;1.90;;
70667;SDS011;58242;51.250;-1.118;2023-03-07T09:30:18;2.10;;;2.00;;
70667;SDS011;58242;51.250;-1.118;2023-03-07T09:32:43;2.65;;;1.90;;
70667;SDS011;58242;51.250;-1.118;2023-03-07T09:35:09;2.15;;;1.98;;
70667;SDS011;58242;51.250;-1.118;2023-03-07T09:37:35;2.05;;;1.95;;
70667;SDS011;58242;51.250;-1.118;2023-03-07T09:40:01;2.33;;;1.88;;
70667;SDS011;58242;51.250;-1.118;2023-03-07T09:45:33;2.17;;;1.73;;
70667;SDS011;58242;51.250;-1.118;2023-03-07T09:48:10;1.60;;;1.50;;
70667;SDS011;58242;51.250;-1.118;2023-03-07T09:50:57;2.33;;;1.75;;
70667;SDS011;58242;51.250;-1.118;2023-03-07T09:53:38;1.40;;;1.40;;
70667;SDS011;58242;51.250;-1.118;2023-03-07T09:56:07;1.60;;;1.50;;
70667;SDS011;58242;51.250;-1.118;2023-03-07T09:58:39;1.60;;;1.50;;
70667;SDS011;58242;51.250;-1.118;2023-03-07T10:01:09;1.30;;;1.30;;
70667;SDS011;58242;51.250;-1.118;2023-03-07T10:06:24;1.55;;;1.52;;
70667;SDS011;58242;51.250;-1.118;2023-03-07T10:08:57;1.70;;;1.60;;
70667;SDS011;58242;51.250;-1.118;2023-03-07T10:16:46;1.85;;;1.75;;
70667;SDS011;58242;51.250;-1.118;2023-03-07T10:19:18;1.83;;;1.83;;
70667;SDS011;58242;51.250;-1.118;2023-03-07T10:24:51;2.00;;;1.90;;
70667;SDS011;58242;51.250;-1.118;2023-03-07T10:27:20;2.45;;;2.08;;
70667;SDS011;58242;51.250;-1.118;2023-03-07T10:29:50;2.42;;;2.28;;
70667;SDS011;58242;51.250;-1.118;2023-03-07T10:32:19;1.58;;;1.50;;
70667;SDS011;58242;51.250;-1.118;2023-03-07T10:37:56;2.40;;;2.20;;
70667;SDS011;58242;51.250;-1.118;2023-03-07T10:43:47;2.42;;;2.22;;
70667;SDS011;58242;51.250;-1.118;2023-03-07T10:46:21;3.22;;;2.33;;
70667;SDS011;58242;51.250;-1.118;2023-03-07T10:51:33;2.05;;;1.90;;
70667;SDS011;58242;51.250;-1.118;2023-03-07T10:54:01;2.13;;;2.00;;
70667;SDS011;58242;51.250;-1.118;2023-03-07T10:56:28;3.17;;;2.17;;
70667;SDS011;58242;51.250;-1.118;2023-03-07T10:58:57;3.97;;;2.65;;
70667;SDS011;58242;51.250;-1.118;2023-03-07T11:01:24;2.90;;;2.45;;
70667;SDS011;58242;51.250;-1.118;2023-03-07T11:03:59;5.25;;;2.33;;
70667;SDS011;58242;51.250;-1.118;2023-03-07T11:09:19;2.13;;;1.80;;
70667;SDS011;58242;51.250;-1.118;2023-03-07T11:12:12;2.92;;;1.90;;
70667;SDS011;58242;51.250;-1.118;2023-03-07T11:14:49;2.20;;;1.88;;
70667;SDS011;58242;51.250;-1.118;2023-03-07T11:22:47;2.15;;;1.95;;
70667;SDS011;58242;51.250;-1.118;2023-03-07T11:25:15;2.90;;;2.20;;
70667;SDS011;58242;51.250;-1.118;2023-03-07T11:32:43;3.17;;;2.88;;
70667;SDS011;58242;51.250;-1.118;2023-03-07T11:35:19;2.40;;;2.20;;
70667;SDS011;58242;51.250;-1.118;2023-03-07T11:37:51;1.95;;;1.67;;
70667;SDS011;58242;51.250;-1.118;2023-03-07T11:40:27;1.70;;;1.70;;
70667;SDS011;58242;51.250;-1.118;2023-03-07T11:50:42;3.00;;;2.80;;
70667;SDS011;58242;51.250;-1.118;2023-03-07T12:01:32;4.15;;;2.63;;
70667;SDS011;58242;51.250;-1.118;2023-03-07T12:07:43;2.65;;;2.55;;
70667;SDS011;58242;51.250;-1.118;2023-03-07T12:12:53;2.50;;;2.40;;
70667;SDS011;58242;51.250;-1.118;2023-03-07T12:15:37;3.15;;;2.95;;
70667;SDS011;58242;51.250;-1.118;2023-03-07T12:20:52;2.50;;;2.40;;
70667;SDS011;58242;51.250;-1.118;2023-03-07T12:23:28;3.22;;;3.00;;
70667;SDS011;58242;51.250;-1.118;2023-03-07T12:26:05;2.47;;;2.28;;
70667;SDS011;58242;51.250;-1.118;2023-03-07T12:31:41;2.38;;;2.28;;
70667;SDS011;58242;51.250;-1.118;2023-03-07T12:36:38;3.00;;;2.78;;
70667;SDS011;58242;51.250;-1.118;2023-03-07T12:45:00;2.00;;;1.90;;
70667;SDS011;58242;51.250;-1.118;2023-03-07T12:50:33;2.58;;;2.38;;
70667;SDS011;58242;51.250;-1.118;2023-03-07T13:01:35;2.40;;;2.30;;
70667;SDS011;58242;51.250;-1.118;2023-03-07T13:04:21;2.30;;;2.20;;
70667;SDS011;58242;51.250;-1.118;2023-03-07T13:06:54;2.50;;;2.30;;
70667;SDS011;58242;51.250;-1.118;2023-03-07T13:09:24;2.45;;;2.10;;
70667;SDS011;58242;51.250;-1.118;2023-03-07T13:17:13;2.65;;;2.45;;
70667;SDS011;58242;51.250;-1.118;2023-03-07T13:19:58;2.70;;;2.50;;
70667;SDS011;58242;51.250;-1.118;2023-03-07T13:28:01;2.58;;;2.47;;
70667;SDS011;58242;51.250;-1.118;2023-03-07T13:30:28;2.67;;;2.53;;
70667;SDS011;58242;51.250;-1.118;2023-03-07T13:33:23;3.10;;;2.30;;
70667;SDS011;58242;51.250;-1.118;2023-03-07T13:36:00;2.03;;;1.92;;
70667;SDS011;58242;51.250;-1.118;2023-03-07T13:38:41;2.75;;;2.55;;
70667;SDS011;58242;51.250;-1.118;2023-03-07T13:41:11;1.80;;;1.80;;
70667;SDS011;58242;51.250;-1.118;2023-03-07T13:51:19;2.70;;;2.50;;
70667;SDS011;58242;51.250;-1.118;2023-03-07T13:53:47;2.60;;;2.50;;
70667;SDS011;58242;51.250;-1.118;2023-03-07T14:01:47;2.80;;;2.70;;
70667;SDS011;58242;51.250;-1.118;2023-03-07T14:04:19;2.60;;;2.50;;
70667;SDS011;58242;51.250;-1.118;2023-03-07T14:06:48;2.28;;;2.17;;
70667;SDS011;58242;51.250;-1.118;2023-03-07T14:09:22;2.22;;;2.13;;
70667;SDS011;58242;51.250;-1.118;2023-03-07T14:12:06;2.00;;;1.90;;
70667;SDS011;58242;51.250;-1.118;2023-03-07T14:14:44;2.40;;;2.30;;
70667;SDS011;58242;51.250;-1.118;2023-03-07T14:17:45;2.42;;;2.33;;
70667;SDS011;58242;51.250;-1.118;2023-03-07T14:21:09;2.30;;;2.20;;
70667;SDS011;58242;51.250;-1.118;2023-03-07T14:29:02;2.35;;;2.25;;
70667;SDS011;58242;51.250;-1.118;2023-03-07T14:31:39;2.50;;;2.40;;
70667;SDS011;58242;51.250;-1.118;2023-03-07T14:34:24;2.60;;;2.50;;
70667;SDS011;58242;51.250;-1.118;2023-03-07T14:39:20;2.55;;;2.20;;
70667;SDS011;58242;51.250;-1.118;2023-03-07T14:44:46;2.25;;;2.10;;
70667;SDS011;58242;51.250;-1.118;2023-03-07T14:50:08;2.38;;;2.28;;
70667;SDS011;58242;51.250;-1.118;2023-03-07T14:52:40;2.15;;;2.13;;
70667;SDS011;58242;51.250;-1.118;2023-03-07T14:55:08;2.00;;;2.00;;
70667;SDS011;58242;51.250;-1.118;2023-03-07T14:57:41;2.58;;;2.47;;
70667;SDS011;58242;51.250;-1.118;2023-03-07T15:02:48;2.42;;;2.33;;
70667;SDS011;58242;51.250;-1.118;2023-03-07T15:05:17;2.30;;;2.20;;
70667;SDS011;58242;51.250;-1.118;2023-03-07T15:10:56;2.45;;;2.35;;
70667;SDS011;58242;51.250;-1.118;2023-03-07T15:13:04;2.30;;;2.20;;
70667;SDS011;58242;51.250;-1.118;2023-03-07T15:15:36;2.35;;;2.25;;
70667;SDS011;58242;51.250;-1.118;2023-03-07T15:18:06;2.50;;;2.40;;
70667;SDS011;58242;51.250;-1.118;2023-03-07T15:21:11;2.90;;;2.35;;
70667;SDS011;58242;51.250;-1.118;2023-03-07T15:23:45;2.33;;;2.22;;
70667;SDS011;58242;51.250;-1.118;2023-03-07T15:26:15;2.30;;;2.10;;
70667;SDS011;58242;51.250;-1.118;2023-03-07T15:28:45;1.90;;;1.90;;
70667;SDS011;58242;51.250;-1.118;2023-03-07T15:31:10;2.22;;;2.13;;
70667;SDS011;58242;51.250;-1.118;2023-03-07T15:33:37;2.50;;;2.40;;
70667;SDS011;58242;51.250;-1.118;2023-03-07T15:38:41;2.50;;;2.30;;
70667;SDS011;58242;51.250;-1.118;2023-03-07T15:46:37;2.53;;;2.33;;
70667;SDS011;58242;51.250;-1.118;2023-03-07T15:49:12;2.58;;;2.47;;
70667;SDS011;58242;51.250;-1.118;2023-03-07T15:51:42;2.30;;;2.20;;
70667;SDS011;58242;51.250;-1.118;2023-03-07T15:57:01;2.30;;;2.20;;
70667;SDS011;58242;51.250;-1.118;2023-03-07T15:59:33;2.58;;;2.38;;
70667;SDS011;58242;51.250;-1.118;2023-03-07T16:04:55;2.53;;;2.33;;
70667;SDS011;58242;51.250;-1.118;2023-03-07T16:07:41;2.47;;;2.38;;
70667;SDS011;58242;51.250;-1.118;2023-03-07T16:10:06;2.15;;;2.05;;
70667;SDS011;58242;51.250;-1.118;2023-03-07T16:12:31;2.28;;;2.17;;
70667;SDS011;58242;51.250;-1.118;2023-03-07T16:14:57;2.45;;;2.35;;
70667;SDS011;58242;51.250;-1.118;2023-03-07T16:19:49;2.30;;;2.20;;
70667;SDS011;58242;51.250;-1.118;2023-03-07T16:22:15;2.10;;;2.10;;
70667;SDS011;58242;51.250;-1.118;2023-03-07T16:24:42;2.38;;;2.30;;
70667;SDS011;58242;51.250;-1.118;2023-03-07T16:27:20;2.17;;;2.17;;
70667;SDS011;58242;51.250;-1.118;2023-03-07T16:29:47;2.20;;;2.10;;
70667;SDS011;58242;51.250;-1.118;2023-03-07T16:32:14;2.78;;;2.63;;
70667;SDS011;58242;51.250;-1.118;2023-03-07T16:34:41;2.20;;;2.10;;
70667;SDS011;58242;51.250;-1.118;2023-03-07T16:37:06;2.42;;;2.33;;
70667;SDS011;58242;51.250;-1.118;2023-03-07T16:39:32;2.33;;;2.25;;
70667;SDS011;58242;51.250;-1.118;2023-03-07T16:41:57;2.28;;;2.20;;
70667;SDS011;58242;51.250;-1.118;2023-03-07T16:44:23;2.13;;;2.13;;
70667;SDS011;58242;51.250;-1.118;2023-03-07T16:46:53;2.10;;;2.00;;
70667;SDS011;58242;51.250;-1.118;2023-03-07T16:49:21;2.25;;;2.15;;
70667;SDS011;58242;51.250;-1.118;2023-03-07T16:51:47;2.03;;;1.92;;
70667;SDS011;58242;51.250;-1.118;2023-03-07T16:54:12;2.20;;;2.10;;
70667;SDS011;58242;51.250;-1.118;2023-03-07T16:56:42;1.90;;;1.90;;
70667;SDS011;58242;51.250;-1.118;2023-03-07T16:59:18;2.55;;;2.45;;
70667;SDS011;58242;51.250;-1.118;2023-03-07T17:01:46;2.15;;;1.90;;
70667;SDS011;58242;51.250;-1.118;2023-03-07T17:04:13;1.60;;;1.60;;
70667;SDS011;58242;51.250;-1.118;2023-03-07T17:06:39;1.50;;;1.50;;
70667;SDS011;58242;51.250;-1.118;2023-03-07T17:09:05;2.20;;;2.10;;
70667;SDS011;58242;51.250;-1.118;2023-03-07T17:11:31;2.05;;;1.95;;